Time;durP1;ratioP1;P1;durP2;ratioP2;P2;SDS_P1;SDS_P2;PMS_P1;PMS_P2;Temp;Humidity;BMP_temperature;BMP_pressure;BME280_temperature;BME280_humidity;BME280_pressure;Samples;Min_cycle;Max_cycle;Signal;HPM_P1;HPM_P2
2022/01/29 00:00:22;;;;;;;12.57;9.00;;;1.50;99.70;;;;;;5035535;28;20187;-77
2022/01/29 00:02:48;;;;;;;14.40;8.93;;;1.40;99.90;;;;;;5034917;28;20184;-77
2022/01/29 00:05:13;;;;;;;14.03;8.93;;;1.40;99.90;;;;;;5034355;28;20198;-78
2022/01/29 00:07:41;;;;;;;16.13;9.67;;;1.50;99.90;;;;;;5034665;28;20207;-78
2022/01/29 00:10:11;;;;;;;13.57;8.97;;;1.50;97.60;;;;;;5034641;28;20589;-78
2022/01/29 00:12:37;;;;;;;15.83;9.33;;;1.50;95.20;;;;;;5035074;28;20184;-77
2022/01/29 00:15:03;;;;;;;13.97;9.63;;;1.50;97.20;;;;;;5034459;28;20704;-77
2022/01/29 00:17:29;;;;;;;12.97;8.87;;;1.50;99.90;;;;;;5034856;28;20180;-77
2022/01/29 00:19:55;;;;;;;14.13;9.20;;;1.50;99.90;;;;;;5034649;28;20179;-77
2022/01/29 00:22:21;;;;;;;12.73;8.93;;;1.50;99.90;;;;;;5034870;28;20242;-78
2022/01/29 00:24:46;;;;;;;14.10;8.93;;;1.50;99.90;;;;;;5033828;28;20180;-78
2022/01/29 00:27:12;;;;;;;10.93;8.63;;;1.40;99.90;;;;;;5034811;28;20171;-77
2022/01/29 00:29:40;;;;;;;13.90;9.93;;;1.50;99.90;;;;;;5034655;28;20676;-78
2022/01/29 00:32:07;;;;;;;13.40;9.20;;;1.50;99.90;;;;;;5034545;28;20203;-77
2022/01/29 00:34:33;;;;;;;15.00;9.17;;;1.50;99.90;;;;;;5034151;28;20191;-78
2022/01/29 00:36:59;;;;;;;13.97;9.53;;;1.50;99.90;;;;;;5034118;28;20195;-76
2022/01/29 00:39:24;;;;;;;10.83;8.87;;;1.50;99.90;;;;;;5034402;28;20278;-76
2022/01/29 00:41:50;;;;;;;13.50;9.57;;;1.50;99.90;;;;;;5034236;28;20179;-78
2022/01/29 00:44:16;;;;;;;12.03;9.10;;;1.50;99.90;;;;;;5034282;28;20275;-78
2022/01/29 00:46:41;;;;;;;13.43;9.00;;;1.30;99.90;;;;;;5034308;28;20679;-77
2022/01/29 00:49:12;;;;;;;14.63;9.90;;;1.30;99.90;;;;;;5034109;28;20218;-77
2022/01/29 00:51:38;;;;;;;14.70;9.87;;;1.40;99.90;;;;;;5016570;28;20230;-76
2022/01/29 00:54:04;;;;;;;14.50;9.87;;;1.20;99.90;;;;;;5034026;28;20225;-77
2022/01/29 00:56:30;;;;;;;13.50;9.23;;;1.20;99.90;;;;;;5033794;28;20195;-76
2022/01/29 00:58:56;;;;;;;13.77;8.97;;;1.30;99.90;;;;;;5034223;28;20180;-76
2022/01/29 01:01:22;;;;;;;13.60;9.30;;;1.20;99.90;;;;;;5034413;28;20183;-76
2022/01/29 01:03:47;;;;;;;11.53;8.67;;;1.30;99.90;;;;;;5033879;28;20683;-77
2022/01/29 01:06:13;;;;;;;10.93;8.50;;;1.30;99.90;;;;;;5033231;28;20206;-76
2022/01/29 01:08:39;;;;;;;15.33;8.80;;;1.20;99.90;;;;;;5033195;28;20644;-76
2022/01/29 01:11:04;;;;;;;12.47;8.33;;;1.10;99.90;;;;;;5033793;28;20334;-76
2022/01/29 01:13:31;;;;;;;13.90;9.30;;;1.10;99.90;;;;;;5033776;28;20172;-76
2022/01/29 01:15:56;;;;;;;13.37;9.43;;;1.10;99.90;;;;;;5033077;28;20261;-76
2022/01/29 01:18:22;;;;;;;11.50;8.53;;;1.10;99.90;;;;;;5033853;28;20179;-76
2022/01/29 01:20:48;;;;;;;13.00;8.60;;;1.10;99.90;;;;;;5033682;28;20267;-76
2022/01/29 01:23:13;;;;;;;12.10;8.77;;;1.10;99.90;;;;;;5033576;28;20312;-77
2022/01/29 01:25:39;;;;;;;11.97;8.60;;;1.10;99.90;;;;;;5033215;28;20195;-76
2022/01/29 01:28:05;;;;;;;13.93;8.67;;;1.20;99.90;;;;;;5033620;28;20579;-75
2022/01/29 01:30:30;;;;;;;14.70;9.67;;;1.20;99.90;;;;;;5033448;28;20274;-75
2022/01/29 01:32:56;;;;;;;17.03;9.10;;;1.20;99.90;;;;;;5033586;28;20234;-74
2022/01/29 01:35:27;;;;;;;13.20;8.70;;;1.30;99.90;;;;;;5032801;28;20222;-75
2022/01/29 01:37:59;;;;;;;12.07;8.90;;;1.20;99.90;;;;;;5033312;28;20206;-75
2022/01/29 01:40:26;;;;;;;16.77;9.33;;;1.30;99.90;;;;;;5033529;28;20183;-75
2022/01/29 01:42:58;;;;;;;11.23;8.73;;;1.20;99.90;;;;;;5033297;28;20771;-75
2022/01/29 01:45:24;;;;;;;10.87;8.83;;;1.20;99.90;;;;;;5032633;28;20207;-75
2022/01/29 01:47:49;;;;;;;12.23;8.67;;;1.20;99.90;;;;;;5033267;28;20675;-75
2022/01/29 01:50:15;;;;;;;12.67;8.50;;;1.20;99.90;;;;;;5032921;28;20208;-75
2022/01/29 01:52:42;;;;;;;12.53;7.40;;;1.20;99.90;;;;;;5033193;28;20603;-75
2022/01/29 01:55:07;;;;;;;9.93;6.67;;;1.30;99.90;;;;;;5032417;28;20195;-76
2022/01/29 01:57:33;;;;;;;8.97;6.50;;;1.40;99.90;;;;;;5032998;28;20271;-75
2022/01/29 01:59:59;;;;;;;10.30;5.93;;;1.60;94.50;;;;;;5033112;28;20184;-75
2022/01/29 02:02:25;;;;;;;11.60;6.60;;;1.70;83.70;;;;;;5032390;28;20306;-76
2022/01/29 02:04:50;;;;;;;11.40;5.73;;;1.70;54.50;;;;;;5031941;28;20668;-75
2022/01/29 02:07:18;;;;;;;8.87;5.63;;;1.80;35.80;;;;;;5032759;28;20597;-75
2022/01/29 02:09:44;;;;;;;8.97;5.50;;;1.80;12.20;;;;;;5032606;28;20269;-76
2022/01/29 02:12:10;;;;;;;10.17;5.70;;;1.90;1.00;;;;;;5014761;28;20183;-76
2022/01/29 02:14:38;;;;;;;10.13;6.03;;;1.90;1.00;;;;;;5033998;28;20184;-79
2022/01/29 02:17:04;;;;;;;9.00;6.07;;;1.80;1.00;;;;;;5032448;28;20580;-77
2022/01/29 02:19:30;;;;;;;8.67;5.63;;;1.90;3.60;;;;;;5031869;28;20190;-77
2022/01/29 02:21:57;;;;;;;8.97;5.73;;;1.90;1.00;;;;;;5032059;28;20179;-78
2022/01/29 02:24:23;;;;;;;7.77;6.10;;;1.80;1.00;;;;;;5032316;28;20258;-77
2022/01/29 02:26:48;;;;;;;9.03;5.77;;;1.70;1.00;;;;;;5032368;28;20565;-76
2022/01/29 02:29:15;;;;;;;9.90;5.90;;;1.70;1.00;;;;;;5032043;28;20694;-76
2022/01/29 02:31:54;;;;;;;8.90;5.40;;;1.70;1.00;;;;;;5032071;28;20775;-77
2022/01/29 02:34:21;;;;;;;8.57;5.97;;;1.80;1.00;;;;;;5031842;28;20182;-77
2022/01/29 02:36:47;;;;;;;9.13;6.10;;;1.80;1.00;;;;;;5032056;28;20196;-77
2022/01/29 02:39:14;;;;;;;9.70;6.70;;;1.70;1.00;;;;;;5032088;28;20171;-78
2022/01/29 02:41:43;;;;;;;9.33;5.73;;;1.70;1.00;;;;;;5032269;28;20263;-79
2022/01/29 02:44:09;;;;;;;9.00;5.70;;;1.70;1.00;;;;;;5031980;28;20260;-77
2022/01/29 02:46:50;;;;;;;8.47;5.33;;;1.80;1.00;;;;;;5031153;28;20269;-78
2022/01/29 02:49:23;;;;;;;6.60;5.40;;;1.70;1.00;;;;;;5031802;28;20215;-78
2022/01/29 02:51:54;;;;;;;10.50;5.73;;;1.70;6.70;;;;;;5031807;28;20259;-77
2022/01/29 02:54:20;;;;;;;8.07;6.07;;;1.70;23.80;;;;;;5013707;28;20267;-76
2022/01/29 02:56:46;;;;;;;7.00;5.23;;;1.60;43.70;;;;;;5031494;28;20207;-77
2022/01/29 02:59:12;;;;;;;9.20;5.63;;;1.50;90.80;;;;;;5031536;28;20187;-78
2022/01/29 03:01:38;;;;;;;7.73;5.73;;;1.50;96.50;;;;;;5031777;28;20250;-78
2022/01/29 03:04:04;;;;;;;10.50;5.60;;;1.60;99.90;;;;;;5031700;28;20275;-78
2022/01/29 03:06:30;;;;;;;7.80;5.50;;;1.60;96.80;;;;;;5030821;28;20237;-75
2022/01/29 03:08:57;;;;;;;10.23;5.70;;;1.60;55.90;;;;;;5031205;28;20590;-75
2022/01/29 03:11:22;;;;;;;8.37;5.10;;;1.60;42.30;;;;;;5031261;28;20229;-75
2022/01/29 03:13:48;;;;;;;8.97;5.80;;;1.60;39.80;;;;;;5031518;28;20183;-76
2022/01/29 03:16:15;;;;;;;7.40;5.23;;;1.50;60.40;;;;;;5030915;28;20199;-76
2022/01/29 03:18:40;;;;;;;8.20;6.07;;;1.50;54.80;;;;;;5031386;28;20180;-76
2022/01/29 03:21:06;;;;;;;9.03;6.27;;;1.40;85.70;;;;;;5031233;28;20178;-77
2022/01/29 03:23:31;;;;;;;9.13;6.13;;;1.40;89.30;;;;;;5031238;28;20266;-76
2022/01/29 03:25:57;;;;;;;9.43;5.80;;;1.30;81.10;;;;;;5030728;28;20187;-77
2022/01/29 03:28:22;;;;;;;11.53;6.70;;;1.30;89.10;;;;;;5031119;28;20601;-77
2022/01/29 03:30:48;;;;;;;10.40;6.07;;;1.30;99.90;;;;;;5013552;28;20203;-77
2022/01/29 03:33:13;;;;;;;8.03;5.77;;;1.30;98.70;;;;;;5031243;28;20191;-77
2022/01/29 03:35:39;;;;;;;8.77;6.17;;;1.40;99.90;;;;;;5030848;28;20211;-76
2022/01/29 03:38:05;;;;;;;7.77;5.80;;;1.40;97.00;;;;;;5031123;28;20175;-77
2022/01/29 03:40:32;;;;;;;8.73;5.90;;;1.40;93.30;;;;;;5031041;28;20176;-77
2022/01/29 03:43:05;;;;;;;9.93;5.90;;;1.40;99.60;;;;;;5031194;28;20185;-77
2022/01/29 03:45:31;;;;;;;8.10;5.50;;;1.40;56.60;;;;;;5030769;28;20219;-76
2022/01/29 03:47:57;;;;;;;8.17;6.00;;;1.40;68.70;;;;;;5031429;28;20255;-76
2022/01/29 03:50:22;;;;;;;9.97;5.97;;;1.40;68.40;;;;;;5030977;28;20222;-77
2022/01/29 03:52:48;;;;;;;7.50;5.90;;;1.40;50.50;;;;;;5030928;28;20179;-76
2022/01/29 03:55:13;;;;;;;7.63;5.17;;;1.40;34.20;;;;;;5030326;28;20192;-78
2022/01/29 03:57:39;;;;;;;9.07;5.83;;;1.40;36.40;;;;;;5032329;28;20183;-76
2022/01/29 04:00:05;;;;;;;6.60;5.33;;;1.40;84.00;;;;;;5035148;28;20186;-77
2022/01/29 04:02:31;;;;;;;10.23;6.20;;;1.40;88.20;;;;;;5035273;28;20211;-76
2022/01/29 04:04:57;;;;;;;7.23;5.50;;;1.40;93.50;;;;;;5034003;28;20184;-77
2022/01/29 04:07:23;;;;;;;8.20;5.23;;;1.30;99.90;;;;;;5030962;28;20594;-76
2022/01/29 04:09:50;;;;;;;8.77;5.87;;;1.30;99.90;;;;;;5030643;28;20238;-76
2022/01/29 04:12:17;;;;;;;8.93;5.83;;;1.40;99.90;;;;;;5030970;28;20184;-76
2022/01/29 04:14:43;;;;;;;9.03;6.33;;;1.40;99.90;;;;;;5030377;28;20182;-76
2022/01/29 04:17:10;;;;;;;6.80;5.30;;;1.30;99.90;;;;;;5030649;28;20195;-76
2022/01/29 04:19:36;;;;;;;11.03;5.60;;;1.40;99.90;;;;;;5030796;28;20180;-76
2022/01/29 04:22:06;;;;;;;7.20;5.47;;;1.40;99.90;;;;;;5030694;28;20254;-76
2022/01/29 04:24:32;;;;;;;7.50;5.27;;;1.40;99.90;;;;;;5030225;28;20183;-76
2022/01/29 04:26:59;;;;;;;9.07;5.83;;;1.50;95.90;;;;;;5030746;28;20361;-77
2022/01/29 04:29:28;;;;;;;7.67;5.00;;;1.60;75.30;;;;;;5031151;28;20208;-77
2022/01/29 04:34:20;;;;;;;6.17;4.60;;;1.60;1.00;;;;;;5030969;28;20202;-75
2022/01/29 04:36:45;;;;;;;11.40;4.53;;;1.60;1.00;;;;;;5030327;28;20681;-74
2022/01/29 04:39:11;;;;;;;6.47;4.90;;;1.60;1.00;;;;;;5031172;28;21089;-75
2022/01/29 04:41:37;;;;;;;7.57;4.70;;;1.60;1.00;;;;;;5030469;28;20172;-75
2022/01/29 04:44:03;;;;;;;9.57;5.13;;;1.60;17.00;;;;;;5032325;28;20176;-74
2022/01/29 04:46:28;;;;;;;6.63;4.30;;;1.60;25.70;;;;;;5033627;28;20700;-75
2022/01/29 04:48:54;;;;;;;6.37;4.57;;;1.60;1.00;;;;;;5034032;28;20205;-74
2022/01/29 04:51:20;;;;;;;7.27;4.23;;;1.70;20.70;;;;;;5033928;28;20672;-75
2022/01/29 04:53:46;;;;;;;9.17;4.50;;;1.60;36.10;;;;;;5033911;28;20352;-75
2022/01/29 04:56:12;;;;;;;6.37;4.67;;;1.60;23.30;;;;;;5033496;28;20207;-75
2022/01/29 04:58:37;;;;;;;6.63;4.40;;;1.70;21.40;;;;;;5034479;28;20176;-77
2022/01/29 05:01:04;;;;;;;5.47;4.40;;;1.70;1.00;;;;;;5034808;28;20558;-75
2022/01/29 05:03:29;;;;;;;5.30;3.97;;;1.70;1.00;;;;;;5035008;28;20188;-75
2022/01/29 05:05:55;;;;;;;7.43;4.27;;;1.70;9.00;;;;;;5033683;28;20218;-74
2022/01/29 05:08:21;;;;;;;4.60;3.93;;;1.80;32.80;;;;;;5034657;28;20634;-75
2022/01/29 05:10:47;;;;;;;6.50;4.33;;;1.80;22.50;;;;;;5034446;28;20332;-75
2022/01/29 05:13:16;;;;;;;6.23;4.13;;;1.70;46.50;;;;;;5034235;28;20176;-75
2022/01/29 05:15:54;;;;;;;4.43;4.00;;;1.70;92.80;;;;;;5033641;28;20210;-74
2022/01/29 05:29:16;;;;;;;5.03;4.13;;;1.80;93.10;;;;;;5034710;28;20707;-76
2022/01/29 05:31:41;;;;;;;7.90;4.20;;;1.80;48.10;;;;;;5034230;28;20188;-75
2022/01/29 05:34:07;;;;;;;6.77;4.37;;;1.80;32.00;;;;;;5033986;28;20180;-75
2022/01/29 05:36:33;;;;;;;9.30;4.00;;;1.80;67.40;;;;;;5033452;28;20682;-75
2022/01/29 05:38:59;;;;;;;5.43;4.10;;;1.80;71.70;;;;;;5033710;28;20597;-76
2022/01/29 05:41:24;;;;;;;7.17;4.17;;;1.90;16.00;;;;;;5033514;28;20195;-77
2022/01/29 05:43:50;;;;;;;6.50;3.90;;;1.80;1.00;;;;;;5033773;28;20167;-77
2022/01/29 05:46:16;;;;;;;6.37;4.00;;;2.00;4.00;;;;;;5033165;28;20281;-77
2022/01/29 05:48:42;;;;;;;5.73;3.70;;;1.90;1.00;;;;;;5034033;28;20195;-76
2022/01/29 05:51:08;;;;;;;7.03;4.10;;;1.90;15.50;;;;;;5033654;28;20775;-77
2022/01/29 05:53:34;;;;;;;5.53;3.90;;;1.80;56.90;;;;;;5033722;28;20516;-77
2022/01/29 05:55:59;;;;;;;5.30;3.67;;;1.80;53.90;;;;;;5031593;28;20314;-78
2022/01/29 05:58:25;;;;;;;4.30;3.80;;;1.90;46.20;;;;;;5033392;28;20198;-79
2022/01/29 06:00:50;;;;;;;5.07;3.63;;;2.00;15.40;;;;;;5033796;28;20656;-78
2022/01/29 06:03:16;;;;;;;5.30;3.70;;;1.90;1.00;;;;;;5033136;28;20179;-77
2022/01/29 06:05:42;;;;;;;7.00;4.00;;;2.00;1.00;;;;;;5032675;28;20326;-77
2022/01/29 06:08:07;;;;;;;4.60;3.60;;;2.00;1.00;;;;;;5033064;28;20171;-78
2022/01/29 06:10:33;;;;;;;4.33;3.47;;;2.00;1.00;;;;;;5032855;28;20673;-77
2022/01/29 06:13:11;;;;;;;5.13;3.53;;;2.00;1.00;;;;;;5032879;28;20706;-76
2022/01/29 06:15:48;;;;;;;7.20;3.73;;;2.00;1.00;;;;;;5032478;28;20199;-78
2022/01/29 06:18:18;;;;;;;6.10;4.20;;;2.00;1.00;;;;;;5032918;28;20179;-77
2022/01/29 06:20:45;;;;;;;6.93;3.70;;;2.10;1.00;;;;;;5032936;28;20543;-77
2022/01/29 06:23:13;;;;;;;6.23;3.53;;;2.20;1.00;;;;;;5032589;28;20641;-77
2022/01/29 06:25:39;;;;;;;8.23;3.67;;;2.20;1.00;;;;;;5032180;28;20187;-77
2022/01/29 06:28:04;;;;;;;9.60;3.97;;;2.20;1.00;;;;;;5032786;28;20175;-77
2022/01/29 06:30:30;;;;;;;6.47;4.20;;;2.10;1.00;;;;;;5035087;28;20207;-84
2022/01/29 06:32:56;;;;;;;7.60;5.00;;;2.00;1.00;;;;;;5032706;28;20188;-78
2022/01/29 06:35:21;;;;;;;8.10;5.43;;;2.10;1.00;;;;;;5031911;28;20203;-79
2022/01/29 06:37:47;;;;;;;10.27;5.70;;;2.10;28.80;;;;;;5032444;28;20504;-78
2022/01/29 06:40:13;;;;;;;10.57;7.00;;;2.10;7.30;;;;;;5032888;28;20194;-78
2022/01/29 06:42:39;;;;;;;11.37;7.20;;;2.00;48.80;;;;;;5032898;28;20168;-79
2022/01/29 06:45:05;;;;;;;13.90;8.53;;;1.90;99.90;;;;;;5032227;28;20192;-80
2022/01/29 06:47:31;;;;;;;14.67;9.10;;;1.90;99.90;;;;;;5032571;28;20176;-79
2022/01/29 06:49:56;;;;;;;16.10;10.60;;;1.80;99.90;;;;;;5032346;28;20204;-77
2022/01/29 06:52:22;;;;;;;12.67;9.20;;;1.80;99.90;;;;;;5032086;28;20485;-77
2022/01/29 06:54:49;;;;;;;14.07;9.60;;;1.90;99.90;;;;;;5031738;28;20591;-77
2022/01/29 06:57:14;;;;;;;15.27;10.60;;;2.00;99.90;;;;;;5032099;28;20612;-76
2022/01/29 06:59:40;;;;;;;16.90;10.50;;;2.00;99.90;;;;;;5032569;28;20176;-77
2022/01/29 07:02:05;;;;;;;14.67;10.03;;;1.90;99.90;;;;;;5032129;28;20172;-76
2022/01/29 07:04:31;;;;;;;14.77;10.67;;;1.90;99.90;;;;;;5031563;28;20580;-77
2022/01/29 07:06:56;;;;;;;14.67;10.00;;;1.70;99.90;;;;;;5013758;28;20275;-78
2022/01/29 07:09:22;;;;;;;16.10;10.37;;;1.60;99.90;;;;;;5032245;28;20204;-78
2022/01/29 07:11:54;;;;;;;16.10;10.27;;;1.60;99.90;;;;;;5033942;28;20182;-76
2022/01/29 07:14:19;;;;;;;16.87;11.47;;;1.60;99.90;;;;;;5034536;28;20653;-76
2022/01/29 07:16:45;;;;;;;15.27;11.73;;;1.60;99.90;;;;;;5031656;28;20329;-76
2022/01/29 07:19:11;;;;;;;18.53;12.17;;;1.60;99.90;;;;;;5031880;28;20257;-75
2022/01/29 07:21:37;;;;;;;20.17;12.53;;;1.60;99.90;;;;;;5031710;28;20295;-76
2022/01/29 07:24:03;;;;;;;20.50;12.77;;;1.70;99.90;;;;;;5032016;28;20230;-76
2022/01/29 07:26:29;;;;;;;18.37;11.57;;;1.80;99.90;;;;;;5030971;28;20215;-76
2022/01/29 07:28:54;;;;;;;18.03;12.00;;;1.90;99.90;;;;;;5031812;28;20179;-78
2022/01/29 07:31:21;;;;;;;15.17;10.57;;;1.80;99.90;;;;;;5031441;28;20211;-76
2022/01/29 07:33:46;;;;;;;16.90;11.53;;;1.90;99.90;;;;;;5031727;28;20180;-77
2022/01/29 07:36:12;;;;;;;13.90;10.10;;;1.90;99.90;;;;;;5031442;28;20640;-77
2022/01/29 07:38:37;;;;;;;12.80;8.90;;;1.90;99.90;;;;;;5031779;28;20195;-76
2022/01/29 07:41:03;;;;;;;11.27;8.00;;;2.00;99.90;;;;;;5031629;28;20660;-76
2022/01/29 07:43:28;;;;;;;14.20;8.50;;;2.10;99.90;;;;;;5031409;28;20168;-77
2022/01/29 07:45:54;;;;;;;10.20;7.63;;;2.20;69.90;;;;;;5031080;28;20203;-76
2022/01/29 07:48:20;;;;;;;10.63;7.40;;;2.20;31.80;;;;;;5031541;28;20186;-75
2022/01/29 07:50:45;;;;;;;12.90;7.90;;;2.20;22.20;;;;;;5031276;28;20207;-75
2022/01/29 07:53:11;;;;;;;8.27;5.60;;;2.20;19.60;;;;;;5031664;28;20171;-76
2022/01/29 07:55:36;;;;;;;9.57;6.37;;;2.30;1.00;;;;;;5030598;28;20212;-73
2022/01/29 07:58:02;;;;;;;12.40;8.57;;;2.50;1.00;;;;;;5031433;28;20556;-73
2022/01/29 08:00:28;;;;;;;9.97;5.27;;;2.70;1.00;;;;;;5031179;28;20179;-73
2022/01/29 08:02:54;;;;;;;11.47;5.13;;;2.90;1.00;;;;;;5031244;28;20226;-73
2022/01/29 08:05:20;;;;;;;7.50;5.40;;;2.90;1.00;;;;;;5030538;28;20282;-73
2022/01/29 08:07:46;;;;;;;7.57;5.03;;;2.90;1.00;;;;;;5026901;28;20190;-77
2022/01/29 08:10:11;;;;;;;8.40;5.77;;;2.70;1.00;;;;;;5022141;28;20801;-77
2022/01/29 08:12:37;;;;;;;10.60;4.67;;;2.70;1.00;;;;;;5020876;28;20177;-78
2022/01/29 08:15:04;;;;;;;6.53;4.40;;;2.70;1.00;;;;;;5025269;28;20185;-76
2022/01/29 08:17:29;;;;;;;5.77;4.10;;;2.80;1.00;;;;;;5019956;28;20177;-76
2022/01/29 08:19:57;;;;;;;5.47;4.37;;;3.00;1.00;;;;;;5029978;28;20728;-77
2022/01/29 08:22:23;;;;;;;7.90;4.33;;;3.10;1.00;;;;;;5034588;28;20246;-76
2022/01/29 08:24:48;;;;;;;9.73;5.30;;;3.20;1.00;;;;;;5031001;28;20188;-77
2022/01/29 08:27:14;;;;;;;5.77;4.07;;;3.20;1.00;;;;;;5034887;28;20231;-77
2022/01/29 08:29:39;;;;;;;6.93;4.10;;;3.20;99.90;;;;;;5033717;28;20215;-79
2022/01/29 08:32:05;;;;;;;5.23;4.27;;;3.30;99.90;;;;;;5035839;28;20253;-78
2022/01/29 08:34:31;;;;;;;5.33;3.90;;;3.30;99.90;;;;;;5030576;28;20183;-78
2022/01/29 09:07:21;;;;;;;0.80;0.80;;;4.50;1.00;;;;;;5165468;27;20574;-77
2022/01/29 09:09:47;;;;;;;0.90;0.90;;;4.10;70.10;;;;;;5157903;27;20183;-78
2022/01/29 09:12:14;;;;;;;0.80;0.80;;;4.20;1.00;;;;;;5159921;27;20306;-77
2022/01/29 09:14:40;;;;;;;0.80;0.80;;;4.30;99.90;;;;;;5164524;27;20211;-77
2022/01/29 09:17:06;;;;;;;0.90;0.90;;;4.30;1.00;;;;;;5170950;27;20259;-79
2022/01/29 09:19:32;;;;;;;0.80;0.80;;;4.20;25.50;;;;;;5206018;22;20287;-79
2022/01/29 09:21:58;;;;;;;0.80;0.80;;;4.30;1.00;;;;;;5175673;27;20176;-78
2022/01/29 09:24:24;;;;;;;0.90;0.90;;;4.30;1.00;;;;;;5174131;27;20259;-80
2022/01/29 09:26:49;;;;;;;0.80;0.80;;;4.40;99.90;;;;;;5158822;27;20273;-76
2022/01/29 09:29:15;;;;;;;0.80;0.80;;;4.50;53.50;;;;;;5153606;28;20180;-78
2022/01/29 09:31:40;;;;;;;0.87;0.87;;;4.80;1.00;;;;;;5154270;27;20240;-76
2022/01/29 09:34:06;;;;;;;0.80;0.80;;;4.90;1.00;;;;;;5154322;28;20203;-78
2022/01/29 09:36:32;;;;;;;0.80;0.80;;;4.90;99.90;;;;;;5153924;27;20189;-78
2022/01/29 09:38:58;;;;;;;0.90;0.90;;;4.70;1.00;;;;;;5154603;27;20177;-78
2022/01/29 09:41:25;;;;;;;0.90;0.90;;;4.90;99.90;;;;;;5149952;27;20203;-77
2022/01/29 09:43:55;;;;;;;0.80;0.80;;;4.50;1.00;;;;;;5148330;27;20381;-79
2022/01/29 09:46:22;;;;;;;0.90;0.90;;;4.60;1.00;;;;;;5154033;27;20211;-79
2022/01/29 09:48:48;;;;;;;0.80;0.80;;;4.80;1.00;;;;;;5144579;27;20229;-78
2022/01/29 09:51:16;;;;;;;0.90;0.90;;;5.00;99.90;;;;;;5143543;27;20191;-79
2022/01/29 09:53:45;;;;;;;0.80;0.80;;;5.20;99.90;;;;;;5154325;27;20180;-79
2022/01/29 09:56:12;;;;;;;0.80;0.80;;;5.50;1.00;;;;;;5150543;27;20200;-77
2022/01/29 09:58:38;;;;;;;0.80;0.80;;;5.50;99.90;;;;;;5150761;27;20249;-79
2022/01/29 10:01:04;;;;;;;0.80;0.80;;;5.80;1.00;;;;;;5145865;27;20197;-80
2022/01/29 10:03:29;;;;;;;0.80;0.80;;;6.00;1.00;;;;;;5145804;27;20172;-80
2022/01/29 10:05:57;;;;;;;0.80;0.80;;;5.50;1.00;;;;;;5133135;27;20182;-79
2022/01/29 10:08:23;;;;;;;0.80;0.80;;;5.70;1.00;;;;;;5120291;28;20194;-79
2022/01/29 10:10:57;;;;;;;0.80;0.80;;;6.20;99.90;;;;;;5126210;28;20229;-77
2022/01/29 10:13:37;;;;;;;0.70;0.70;;;7.50;1.00;;;;;;5137726;27;20171;-77
2022/01/29 10:16:03;;;;;;;0.70;0.70;;;8.90;99.90;;;;;;5139007;27;20282;-79
2022/01/29 10:18:31;;;;;;;0.77;0.77;;;9.50;7.20;;;;;;5137841;27;20181;-80
2022/01/29 10:21:12;;;;;;;0.60;0.60;;;8.10;99.90;;;;;;5137768;28;20194;-78
2022/01/29 10:23:38;;;;;;;0.67;0.67;;;7.80;99.90;;;;;;5133768;27;20161;-77
2022/01/29 10:26:05;;;;;;;0.60;0.60;;;8.50;99.90;;;;;;5139983;27;20193;-77
2022/01/29 10:28:31;;;;;;;0.60;0.60;;;9.50;19.90;;;;;;5140491;27;20180;-79
2022/01/29 10:31:00;;;;;;;0.53;0.53;;;8.40;91.40;;;;;;5135861;28;20197;-79
2022/01/29 10:33:35;;;;;;;0.50;0.50;;;8.60;99.90;;;;;;5135527;27;20181;-77
2022/01/29 10:36:03;;;;;;;0.67;0.67;;;8.70;99.90;;;;;;5138755;27;20197;-78
2022/01/29 10:38:49;;;;;;;0.60;0.60;;;8.10;99.90;;;;;;5140033;27;20176;-79
2022/01/29 10:41:23;;;;;;;0.60;0.60;;;8.40;99.90;;;;;;5139681;27;20165;-76
2022/01/29 10:44:14;;;;;;;0.70;0.70;;;7.50;99.90;;;;;;5139836;27;20214;-75
2022/01/29 10:46:50;;;;;;;0.60;0.60;;;7.30;1.00;;;;;;5139500;27;20180;-77
2022/01/29 10:49:25;;;;;;;0.70;0.70;;;7.10;99.90;;;;;;5139451;27;20263;-76
2022/01/29 10:52:01;;;;;;;0.60;0.60;;;6.60;1.00;;;;;;5139774;27;20176;-77
2022/01/29 10:54:27;;;;;;;0.80;0.80;;;6.40;99.90;;;;;;5139456;27;20219;-77
2022/01/29 10:56:52;;;;;;;0.80;0.80;;;6.30;99.90;;;;;;5139012;27;20202;-80
2022/01/29 10:59:18;;;;;;;0.90;0.90;;;6.30;99.90;;;;;;5138657;27;20264;-79
2022/01/29 11:01:50;;;;;;;0.90;0.90;;;6.40;99.90;;;;;;5136945;27;20165;-76
2022/01/29 11:04:15;;;;;;;0.80;0.80;;;6.20;99.90;;;;;;5131201;27;20441;-77
2022/01/29 11:06:45;;;;;;;0.70;0.70;;;6.20;1.00;;;;;;5139004;27;20216;-78
2022/01/29 11:09:12;;;;;;;0.80;0.80;;;6.00;1.00;;;;;;5139361;27;20157;-78
2022/01/29 11:11:39;;;;;;;0.80;0.80;;;6.00;1.00;;;;;;5139421;27;20165;-78
2022/01/29 11:14:09;;;;;;;0.80;0.80;;;6.00;1.00;;;;;;5138388;27;20196;-78
2022/01/29 11:16:36;;;;;;;0.80;0.80;;;6.00;99.90;;;;;;5121194;28;20196;-77
2022/01/29 11:19:02;;;;;;;0.80;0.80;;;6.00;1.00;;;;;;5138323;27;20644;-78
2022/01/29 11:21:29;;;;;;;0.70;0.70;;;6.00;1.00;;;;;;5138940;27;20161;-77
2022/01/29 11:23:54;;;;;;;0.70;0.70;;;6.20;1.00;;;;;;5138968;27;20173;-80
2022/01/29 11:26:20;;;;;;;0.80;0.80;;;6.20;1.00;;;;;;5138464;27;20212;-77
2022/01/29 11:28:46;;;;;;;0.80;0.80;;;6.30;99.90;;;;;;5139003;27;20161;-78
2022/01/29 11:31:13;;;;;;;0.80;0.80;;;6.30;99.90;;;;;;5138449;27;20203;-77
2022/01/29 11:33:57;;;;;;;0.80;0.80;;;6.40;99.90;;;;;;5138510;27;20184;-81
2022/01/29 11:36:48;;;;;;;0.80;0.80;;;6.30;99.90;;;;;;5137879;27;20192;-80
2022/01/29 11:39:25;;;;;;;0.80;0.80;;;6.30;99.90;;;;;;5135730;27;20169;-79
2022/01/29 11:42:13;;;;;;;0.87;0.87;;;6.30;1.00;;;;;;5134852;27;20169;-79
2022/01/29 11:44:40;;;;;;;0.80;0.80;;;6.30;1.00;;;;;;5136726;27;20225;-77
2022/01/29 11:47:24;;;;;;;0.80;0.80;;;6.30;1.00;;;;;;5136788;28;20197;-79
2022/01/29 11:50:10;;;;;;;0.80;0.80;;;6.20;1.00;;;;;;5138667;27;20188;-79
2022/01/29 11:52:56;;;;;;;0.80;0.80;;;6.20;1.00;;;;;;5137534;27;20179;-80
2022/01/29 11:55:37;;;;;;;0.90;0.90;;;6.20;1.00;;;;;;5137604;27;20201;-78
2022/01/29 11:58:21;;;;;;;0.90;0.90;;;6.20;1.00;;;;;;5137374;27;20172;-78
2022/01/29 12:01:03;;;;;;;0.80;0.80;;;6.20;1.00;;;;;;5135048;28;20177;-77
2022/01/29 12:03:35;;;;;;;0.87;0.87;;;6.40;1.00;;;;;;5128573;28;20196;-78
2022/01/29 12:06:19;;;;;;;0.90;0.90;;;6.40;1.00;;;;;;5127977;28;20196;-77
2022/01/29 12:08:58;;;;;;;0.80;0.80;;;6.40;1.00;;;;;;5130636;28;20181;-80
2022/01/29 12:11:25;;;;;;;0.70;0.70;;;6.20;1.00;;;;;;5137943;27;20189;-79
2022/01/29 12:14:24;;;;;;;0.90;0.90;;;6.20;32.50;;;;;;5134359;28;20191;-77
2022/01/29 12:16:54;;;;;;;0.80;0.80;;;6.10;99.90;;;;;;5129990;28;20193;-77
2022/01/29 12:19:46;;;;;;;0.80;0.80;;;6.10;99.90;;;;;;5136923;27;20188;-77
2022/01/29 12:22:26;;;;;;;0.80;0.80;;;6.10;99.90;;;;;;5127203;28;20253;-76
2022/01/29 12:24:59;;;;;;;0.80;0.80;;;6.20;99.90;;;;;;5120803;28;20188;-75
2022/01/29 12:27:58;;;;;;;0.80;0.80;;;6.10;99.90;;;;;;5124352;28;20173;-78
2022/01/29 12:30:27;;;;;;;0.80;0.80;;;6.00;99.90;;;;;;5119828;28;20195;-77
2022/01/29 12:32:58;;;;;;;0.90;0.90;;;6.00;99.90;;;;;;5123078;28;20180;-77
2022/01/29 12:35:44;;;;;;;0.70;0.70;;;6.00;99.90;;;;;;5122182;28;20221;-77
2022/01/29 12:38:23;;;;;;;0.90;0.90;;;6.00;99.90;;;;;;5120300;28;20173;-78
2022/01/29 12:40:55;;;;;;;0.70;0.70;;;6.00;1.00;;;;;;5125454;28;20181;-77
2022/01/29 12:43:28;;;;;;;0.80;0.80;;;6.10;99.90;;;;;;5127825;28;20165;-77
2022/01/29 12:46:05;;;;;;;0.80;0.80;;;5.90;48.20;;;;;;5129823;28;20211;-77
2022/01/29 12:48:31;;;;;;;0.90;0.90;;;6.00;30.70;;;;;;5123582;28;20316;-76
2022/01/29 12:51:04;;;;;;;0.80;0.80;;;6.10;1.00;;;;;;5122435;28;20178;-76
2022/01/29 12:53:29;;;;;;;0.77;0.77;;;6.20;1.00;;;;;;5121637;28;20537;-75
2022/01/29 12:56:05;;;;;;;0.80;0.80;;;6.20;1.00;;;;;;5120769;28;20296;-76
2022/01/29 12:58:36;;;;;;;0.80;0.80;;;6.50;1.00;;;;;;5122431;28;20181;-76
2022/01/29 13:01:24;;;;;;;0.87;0.87;;;6.60;99.90;;;;;;5116819;28;20196;-76
2022/01/29 13:03:50;;;;;;;0.80;0.80;;;6.80;1.00;;;;;;5121508;28;20169;-78
2022/01/29 13:06:17;;;;;;;0.80;0.80;;;6.90;99.90;;;;;;5117087;28;20560;-77
2022/01/29 13:08:43;;;;;;;0.80;0.80;;;6.90;99.90;;;;;;5117962;28;20188;-76
2022/01/29 13:11:22;;;;;;;0.90;0.90;;;6.80;1.00;;;;;;5120997;28;20177;-75
2022/01/29 13:13:47;;;;;;;0.80;0.80;;;6.60;1.00;;;;;;5118887;28;20177;-76
2022/01/29 13:16:13;;;;;;;0.90;0.90;;;6.60;99.90;;;;;;5119504;28;20203;-78
2022/01/29 13:18:39;;;;;;;0.80;0.80;;;6.50;1.00;;;;;;5121704;28;20638;-78
2022/01/29 13:21:04;;;;;;;0.80;0.80;;;6.40;1.00;;;;;;5120759;28;20184;-78
2022/01/29 13:23:34;;;;;;;0.80;0.80;;;6.40;99.90;;;;;;5129269;28;20208;-79
2022/01/29 13:26:16;;;;;;;0.80;0.80;;;6.40;99.90;;;;;;5122631;28;20212;-80
2022/01/29 13:28:46;;;;;;;0.60;0.60;;;6.40;99.90;;;;;;5127490;28;20413;-74
2022/01/29 13:31:13;;;;;;;0.70;0.70;;;6.40;99.90;;;;;;5128970;28;20181;-77
2022/01/29 13:33:39;;;;;;;0.80;0.80;;;6.40;99.90;;;;;;5127792;28;20568;-78
2022/01/29 13:36:04;;;;;;;0.80;0.80;;;6.30;99.90;;;;;;5125644;28;20208;-76
2022/01/29 13:38:38;;;;;;;0.80;0.80;;;6.30;99.90;;;;;;5117976;28;20205;-76
2022/01/29 13:41:04;;;;;;;0.90;0.90;;;6.30;99.90;;;;;;5117487;28;20233;-76
2022/01/29 13:43:41;;;;;;;0.70;0.70;;;6.30;99.90;;;;;;5118598;28;20177;-76
2022/01/29 13:46:08;;;;;;;0.77;0.77;;;6.20;99.90;;;;;;5118666;28;20189;-77